Time;durP1;ratioP1;P1;durP2;ratioP2;P2;SDS_P1;SDS_P2;PMS_P1;PMS_P2;Temp;Humidity;BMP_temperature;BMP_pressure;BME280_temperature;BME280_humidity;BME280_pressure;Samples;Min_cycle;Max_cycle;Signal;HPM_P1;HPM_P2
2023/04/29 00:03:05;;;;;;;11.40;8.60;;;;;;;;;;10480966;28;20984;-84
2023/04/29 00:08:07;;;;;;;12.70;9.07;;;;;;;;;;10489092;28;20797;-85
2023/04/29 00:13:11;;;;;;;12.48;8.90;;;;;;;;;;10483412;28;20416;-85
2023/04/29 00:18:13;;;;;;;12.45;8.43;;;;;;;;;;10480170;28;20424;-85
2023/04/29 00:23:15;;;;;;;11.63;8.80;;;;;;;;;;10473638;28;20878;-85
2023/04/29 00:28:18;;;;;;;10.43;7.90;;;;;;;;;;10470746;28;20403;-85
2023/04/29 00:33:20;;;;;;;11.50;8.20;;;;;;;;;;10470857;28;20412;-85
2023/04/29 00:38:22;;;;;;;9.88;8.00;;;;;;;;;;10471484;28;21254;-85
2023/04/29 00:43:25;;;;;;;10.30;8.13;;;;;;;;;;10473086;28;20408;-85
2023/04/29 00:48:27;;;;;;;9.55;7.70;;;;;;;;;;10476741;28;20406;-85
2023/04/29 00:53:29;;;;;;;10.00;7.80;;;;;;;;;;10472842;28;20423;-86
2023/04/29 00:58:34;;;;;;;9.80;7.45;;;;;;;;;;10475905;28;20508;-85
2023/04/29 01:03:36;;;;;;;9.33;7.70;;;;;;;;;;10473101;28;20513;-85
2023/04/29 01:08:44;;;;;;;9.98;7.50;;;;;;;;;;10475153;28;20525;-85
2023/04/29 01:13:51;;;;;;;11.43;8.33;;;;;;;;;;10471418;28;20406;-85
2023/04/29 01:18:55;;;;;;;10.17;7.53;;;;;;;;;;10452485;28;20454;-86
2023/04/29 01:23:58;;;;;;;11.38;7.32;;;;;;;;;;10453248;28;20487;-85
2023/04/29 01:29:18;;;;;;;9.33;7.23;;;;;;;;;;10467799;28;20399;-86
2023/04/29 01:34:26;;;;;;;11.90;7.53;;;;;;;;;;10471231;28;20834;-85
2023/04/29 01:39:34;;;;;;;10.43;7.07;;;;;;;;;;10471423;28;20927;-85
2023/04/29 01:44:38;;;;;;;9.27;7.63;;;;;;;;;;10471194;28;20422;-85
2023/04/29 01:49:40;;;;;;;10.13;7.30;;;;;;;;;;10470508;28;20461;-85
2023/04/29 01:54:43;;;;;;;9.07;7.25;;;;;;;;;;10473251;28;20881;-86
2023/04/29 01:59:45;;;;;;;9.50;7.20;;;;;;;;;;10470342;28;20918;-85
2023/04/29 02:04:47;;;;;;;10.50;7.10;;;;;;;;;;10473376;28;20402;-85
2023/04/29 02:09:50;;;;;;;9.90;7.13;;;;;;;;;;10470251;28;20423;-85
2023/04/29 02:14:53;;;;;;;9.93;7.80;;;;;;;;;;10469729;28;20497;-85
2023/04/29 02:19:54;;;;;;;9.10;6.90;;;;;;;;;;10469158;28;20930;-85
2023/04/29 02:24:58;;;;;;;10.43;7.43;;;;;;;;;;10471920;28;20804;-85
2023/04/29 02:30:00;;;;;;;9.53;7.63;;;;;;;;;;10469708;28;20411;-85
2023/04/29 02:35:01;;;;;;;9.60;7.93;;;;;;;;;;10471753;28;20398;-85
2023/04/29 02:40:06;;;;;;;9.60;7.95;;;;;;;;;;10474919;28;20424;-85
2023/04/29 02:45:09;;;;;;;9.90;8.02;;;;;;;;;;10466411;28;20395;-85
2023/04/29 02:50:11;;;;;;;11.50;7.88;;;;;;;;;;10467553;28;20515;-85
2023/04/29 02:55:14;;;;;;;12.02;8.02;;;;;;;;;;10426641;28;20790;-85
2023/04/29 03:00:15;;;;;;;11.25;8.20;;;;;;;;;;10428813;28;20427;-85
2023/04/29 03:05:18;;;;;;;9.45;7.35;;;;;;;;;;10427529;28;20411;-85
2023/04/29 03:10:21;;;;;;;8.77;7.30;;;;;;;;;;10429134;28;20408;-85
2023/04/29 03:15:22;;;;;;;10.00;7.28;;;;;;;;;;10426762;28;20887;-84
2023/04/29 03:20:24;;;;;;;10.95;7.47;;;;;;;;;;10427872;28;20793;-85
2023/04/29 03:25:28;;;;;;;9.88;7.20;;;;;;;;;;10427523;28;20795;-85
2023/04/29 03:30:29;;;;;;;14.15;7.40;;;;;;;;;;10428446;28;20484;-85
2023/04/29 03:35:31;;;;;;;9.17;7.33;;;;;;;;;;10427575;28;20410;-85
2023/04/29 03:40:34;;;;;;;10.82;7.05;;;;;;;;;;10427286;28;20842;-85
2023/04/29 03:45:36;;;;;;;8.67;6.70;;;;;;;;;;10428053;28;20406;-85
2023/04/29 03:50:38;;;;;;;9.23;7.00;;;;;;;;;;10433553;28;20418;-85
2023/04/29 03:55:41;;;;;;;9.90;7.55;;;;;;;;;;10468911;28;20417;-85
2023/04/29 04:00:43;;;;;;;12.25;7.43;;;;;;;;;;10467923;28;20464;-85
2023/04/29 04:05:45;;;;;;;13.23;8.60;;;;;;;;;;10469279;28;20409;-85
2023/04/29 04:10:48;;;;;;;11.65;7.65;;;;;;;;;;10470490;28;20404;-85
2023/04/29 04:15:50;;;;;;;10.60;7.90;;;;;;;;;;10476750;28;20397;-85
2023/04/29 04:20:52;;;;;;;12.07;8.10;;;;;;;;;;10474887;28;20789;-85
2023/04/29 04:25:56;;;;;;;9.85;7.63;;;;;;;;;;10476908;28;20442;-85
2023/04/29 04:30:58;;;;;;;11.50;7.57;;;;;;;;;;10474213;28;20415;-85
2023/04/29 04:36:00;;;;;;;10.88;7.70;;;;;;;;;;10476157;28;20402;-85
2023/04/29 04:41:06;;;;;;;10.55;7.78;;;;;;;;;;10477678;28;20423;-85
2023/04/29 04:46:11;;;;;;;10.70;7.40;;;;;;;;;;10473647;28;20403;-85
2023/04/29 04:51:14;;;;;;;11.70;7.40;;;;;;;;;;10474986;28;20468;-85
2023/04/29 04:56:17;;;;;;;11.63;7.57;;;;;;;;;;10472692;28;20414;-84
2023/04/29 05:01:19;;;;;;;12.10;6.80;;;;;;;;;;10478197;28;20425;-85
2023/04/29 05:06:21;;;;;;;9.57;7.03;;;;;;;;;;10475150;28;20407;-85
2023/04/29 05:11:24;;;;;;;9.47;7.00;;;;;;;;;;10482105;28;20534;-84
2023/04/29 05:16:25;;;;;;;10.48;7.38;;;;;;;;;;10484095;28;20402;-84
2023/04/29 05:21:27;;;;;;;9.60;7.00;;;;;;;;;;10491988;28;20436;-85
2023/04/29 05:26:30;;;;;;;10.75;7.45;;;;;;;;;;10492295;28;20759;-85
2023/04/29 05:31:32;;;;;;;8.93;6.53;;;;;;;;;;10491484;28;20420;-84
2023/04/29 05:36:34;;;;;;;9.23;7.07;;;;;;;;;;10491184;28;20813;-86
2023/04/29 05:41:37;;;;;;;10.37;7.47;;;;;;;;;;10487148;28;20905;-85
2023/04/29 05:46:39;;;;;;;12.30;8.05;;;;;;;;;;10489324;28;20410;-85
2023/04/29 05:51:41;;;;;;;10.53;8.10;;;;;;;;;;10470412;28;20487;-85
2023/04/29 05:56:44;;;;;;;9.98;7.88;;;;;;;;;;10476633;28;20416;-85
2023/04/29 06:01:46;;;;;;;12.37;8.43;;;;;;;;;;10479399;28;20909;-85
2023/04/29 06:06:48;;;;;;;10.15;7.60;;;;;;;;;;10475204;28;20404;-85
2023/04/29 06:11:54;;;;;;;11.03;7.60;;;;;;;;;;10473699;28;20404;-83
2023/04/29 06:16:55;;;;;;;11.10;7.53;;;;;;;;;;10468536;28;20491;-84
2023/04/29 06:21:57;;;;;;;9.70;7.80;;;;;;;;;;10469577;28;20427;-83
2023/04/29 06:27:01;;;;;;;9.93;7.65;;;;;;;;;;10468831;28;20401;-83
2023/04/29 06:32:02;;;;;;;12.43;7.95;;;;;;;;;;10470836;28;20487;-84
2023/04/29 06:37:04;;;;;;;11.55;7.85;;;;;;;;;;10470320;28;20400;-83
2023/04/29 06:42:07;;;;;;;12.15;8.57;;;;;;;;;;10470139;28;20505;-84
2023/04/29 06:47:09;;;;;;;10.55;8.63;;;;;;;;;;10479137;28;20953;-84
2023/04/29 06:52:11;;;;;;;10.93;8.00;;;;;;;;;;10469335;28;20412;-84
2023/04/29 06:57:14;;;;;;;12.03;8.63;;;;;;;;;;10481036;28;20406;-83
2023/04/29 07:02:16;;;;;;;12.75;8.60;;;;;;;;;;10488568;28;20440;-83
2023/04/29 07:07:18;;;;;;;13.20;8.63;;;;;;;;;;10486586;28;20413;-84
2023/04/29 07:12:21;;;;;;;11.10;8.07;;;;;;;;;;10481727;28;20402;-85
2023/04/29 07:17:23;;;;;;;12.68;8.95;;;;;;;;;;10479133;28;20828;-84
2023/04/29 07:22:25;;;;;;;12.67;8.57;;;;;;;;;;10479131;28;20988;-84
2023/04/29 07:27:28;;;;;;;12.85;8.50;;;;;;;;;;10481701;28;20410;-85
2023/04/29 07:32:31;;;;;;;13.93;8.45;;;;;;;;;;10477364;28;20419;-86
2023/04/29 07:37:33;;;;;;;13.18;7.97;;;;;;;;;;10475405;28;20407;-85
2023/04/29 07:42:36;;;;;;;11.45;8.50;;;;;;;;;;10466756;28;20418;-82
2023/04/29 07:47:38;;;;;;;11.48;7.82;;;;;;;;;;10475175;28;20886;-86
2023/04/29 07:52:39;;;;;;;10.75;7.10;;;;;;;;;;10476848;28;20417;-85
2023/04/29 07:57:42;;;;;;;9.73;6.77;;;;;;;;;;10477222;28;20412;-84
2023/04/29 08:02:44;;;;;;;11.55;7.57;;;;;;;;;;10473731;28;20421;-85
2023/04/29 08:07:46;;;;;;;12.70;7.40;;;;;;;;;;10483234;28;20407;-85
2023/04/29 08:12:50;;;;;;;11.82;7.50;;;;;;;;;;10473985;28;20757;-85
2023/04/29 08:17:52;;;;;;;11.97;7.13;;;;;;;;;;10473234;28;20758;-85
2023/04/29 08:22:54;;;;;;;10.70;7.35;;;;;;;;;;10454819;28;20826;-84
2023/04/29 08:27:57;;;;;;;9.73;7.23;;;;;;;;;;10454097;28;21067;-85
2023/04/29 08:32:59;;;;;;;10.57;6.68;;;;;;;;;;10470328;28;20497;-85
2023/04/29 08:38:01;;;;;;;12.00;7.13;;;;;;;;;;10476100;28;20488;-85
2023/04/29 08:43:04;;;;;;;9.23;7.07;;;;;;;;;;10476430;28;20400;-85
2023/04/29 08:48:07;;;;;;;10.63;6.63;;;;;;;;;;10475890;28;20402;-86
2023/04/29 08:53:10;;;;;;;10.32;6.75;;;;;;;;;;10473623;28;20490;-85
2023/04/29 08:58:15;;;;;;;11.93;7.18;;;;;;;;;;10476318;28;20413;-86
2023/04/29 09:03:33;;;;;;;9.38;6.72;;;;;;;;;;10475505;28;20415;-85
2023/04/29 09:08:35;;;;;;;9.07;6.80;;;;;;;;;;10473753;28;20407;-85
2023/04/29 09:13:38;;;;;;;11.23;6.95;;;;;;;;;;10475223;28;20410;-85
2023/04/29 09:18:44;;;;;;;8.27;6.10;;;;;;;;;;10472976;28;20903;-86
2023/04/29 09:23:47;;;;;;;9.90;6.80;;;;;;;;;;10473207;28;20414;-86
2023/04/29 09:29:06;;;;;;;11.85;6.47;;;;;;;;;;10473440;28;20403;-85
2023/04/29 09:34:10;;;;;;;9.05;5.65;;;;;;;;;;10452132;28;20436;-85
2023/04/29 09:39:15;;;;;;;11.13;6.17;;;;;;;;;;10467830;28;20518;-84
2023/04/29 09:44:19;;;;;;;9.17;5.70;;;;;;;;;;10477883;28;20423;-86
2023/04/29 09:49:26;;;;;;;8.70;5.15;;;;;;;;;;10479978;28;20441;-85
2023/04/29 09:54:30;;;;;;;9.10;5.65;;;;;;;;;;10480128;28;20410;-85
2023/04/29 09:59:35;;;;;;;7.38;5.65;;;;;;;;;;10487593;28;20456;-84
2023/04/29 10:04:41;;;;;;;9.45;5.40;;;;;;;;;;10470960;28;20406;-85
2023/04/29 10:09:45;;;;;;;8.15;5.20;;;;;;;;;;10482348;28;20801;-84
2023/04/29 10:14:57;;;;;;;9.75;5.30;;;;;;;;;;10474530;28;20406;-83
2023/04/29 10:20:06;;;;;;;7.60;5.32;;;;;;;;;;10483431;28;20418;-84
2023/04/29 10:25:10;;;;;;;8.45;5.70;;;;;;;;;;10482529;28;20421;-85
2023/04/29 10:30:14;;;;;;;9.45;5.50;;;;;;;;;;10482570;28;20497;-85
2023/04/29 10:35:19;;;;;;;8.32;5.03;;;;;;;;;;10481865;28;20413;-85
2023/04/29 10:40:28;;;;;;;14.60;7.53;;;;;;;;;;10483113;28;20418;-83
2023/04/29 10:45:34;;;;;;;7.05;5.22;;;;;;;;;;10479710;28;20491;-84
2023/04/29 10:50:59;;;;;;;10.85;5.28;;;;;;;;;;10484124;28;20424;-84
2023/04/29 10:56:08;;;;;;;7.90;5.50;;;;;;;;;;10473292;28;20923;-85
2023/04/29 11:01:15;;;;;;;9.52;6.22;;;;;;;;;;10469167;28;20418;-85
2023/04/29 11:06:17;;;;;;;8.82;5.80;;;;;;;;;;10466973;28;20484;-85
2023/04/29 11:11:19;;;;;;;7.78;5.70;;;;;;;;;;10473789;28;20778;-83
2023/04/29 11:16:28;;;;;;;11.35;6.72;;;;;;;;;;10467394;28;20906;-84
2023/04/29 11:21:30;;;;;;;8.48;5.60;;;;;;;;;;10472664;28;20429;-84
2023/04/29 11:26:32;;;;;;;8.27;5.53;;;;;;;;;;10459610;28;20432;-84
2023/04/29 11:31:35;;;;;;;8.40;5.45;;;;;;;;;;10458567;28;20411;-84
2023/04/29 11:36:37;;;;;;;10.50;6.30;;;;;;;;;;10458270;28;20987;-84
2023/04/29 11:41:39;;;;;;;8.60;6.03;;;;;;;;;;10471803;28;20511;-85
2023/04/29 11:46:43;;;;;;;8.03;5.63;;;;;;;;;;10471739;28;20413;-85
2023/04/29 11:51:45;;;;;;;7.10;4.70;;;;;;;;;;10469815;28;20449;-85
2023/04/29 11:56:47;;;;;;;8.03;5.60;;;;;;;;;;10471658;28;20468;-86
2023/04/29 12:01:50;;;;;;;7.17;5.00;;;;;;;;;;10474215;28;20980;-84
2023/04/29 12:06:52;;;;;;;9.65;5.47;;;;;;;;;;10461835;28;20415;-85
2023/04/29 12:11:54;;;;;;;8.75;5.82;;;;;;;;;;10474400;28;20410;-83
2023/04/29 12:16:57;;;;;;;7.65;6.18;;;;;;;;;;10473829;28;21155;-84
2023/04/29 12:21:59;;;;;;;8.10;5.87;;;;;;;;;;10472374;28;20418;-85
2023/04/29 12:27:01;;;;;;;9.70;5.82;;;;;;;;;;10475824;28;20476;-85
2023/04/29 12:32:04;;;;;;;9.13;6.38;;;;;;;;;;10475879;28;20957;-84
2023/04/29 12:37:06;;;;;;;9.67;6.47;;;;;;;;;;10479254;28;20414;-85
2023/04/29 12:42:15;;;;;;;10.27;5.90;;;;;;;;;;10479045;28;20428;-85
2023/04/29 12:47:20;;;;;;;8.63;5.90;;;;;;;;;;10478344;28;20505;-85
2023/04/29 12:52:22;;;;;;;7.40;5.90;;;;;;;;;;10481498;28;20410;-85
2023/04/29 12:57:25;;;;;;;11.30;5.90;;;;;;;;;;10482546;28;20822;-85
2023/04/29 13:02:39;;;;;;;11.00;6.90;;;;;;;;;;10472238;28;20471;-85
2023/04/29 13:07:41;;;;;;;9.30;6.10;;;;;;;;;;10478814;28;20422;-85
2023/04/29 13:12:42;;;;;;;10.45;7.05;;;;;;;;;;10476300;28;20406;-85
2023/04/29 13:17:46;;;;;;;11.52;6.95;;;;;;;;;;10455702;28;20832;-82
2023/04/29 13:22:48;;;;;;;8.33;6.03;;;;;;;;;;10468663;28;20427;-85
2023/04/29 13:27:49;;;;;;;10.53;6.80;;;;;;;;;;10480667;28;20403;-85
2023/04/29 13:32:53;;;;;;;9.93;6.67;;;;;;;;;;10475162;28;20416;-85
2023/04/29 13:37:55;;;;;;;9.68;6.95;;;;;;;;;;10478647;28;20437;-85
2023/04/29 13:42:57;;;;;;;11.07;6.93;;;;;;;;;;10477762;28;20506;-84
2023/04/29 13:48:00;;;;;;;9.30;6.60;;;;;;;;;;10482586;28;20406;-84
2023/04/29 13:53:05;;;;;;;8.80;7.13;;;;;;;;;;10545031;22;20425;-85
2023/04/29 13:58:07;;;;;;;10.40;7.10;;;;;;;;;;10543557;28;20843;-84
2023/04/29 14:03:10;;;;;;;10.80;7.10;;;;;;;;;;10557970;27;20519;-84
2023/04/29 14:08:12;;;;;;;10.40;7.55;;;;;;;;;;10549805;27;20414;-84
2023/04/29 14:13:14;;;;;;;9.87;6.80;;;;;;;;;;10549571;27;20407;-84
2023/04/29 14:18:17;;;;;;;9.77;6.97;;;;;;;;;;10548567;28;20418;-83
2023/04/29 14:23:20;;;;;;;9.57;7.72;;;;;;;;;;10546490;27;20416;-80
2023/04/29 14:28:24;;;;;;;9.83;6.10;;;;;;;;;;10553033;27;20925;-80
2023/04/29 14:33:27;;;;;;;7.40;6.05;;;;;;;;;;10550029;27;20398;-79
2023/04/29 14:38:28;;;;;;;8.37;6.43;;;;;;;;;;10551663;27;20425;-80
2023/04/29 14:43:30;;;;;;;9.37;6.80;;;;;;;;;;10550854;27;20416;-79
2023/04/29 14:48:33;;;;;;;11.52;6.88;;;;;;;;;;10553708;27;20427;-85
2023/04/29 14:53:35;;;;;;;12.48;7.55;;;;;;;;;;10558902;27;20467;-85
2023/04/29 14:58:37;;;;;;;9.07;6.18;;;;;;;;;;10566900;27;20422;-84
2023/04/29 15:03:41;;;;;;;10.05;6.70;;;;;;;;;;10557836;27;20450;-85
2023/04/29 15:08:43;;;;;;;10.37;8.00;;;;;;;;;;10557711;28;20401;-85
2023/04/29 15:13:45;;;;;;;11.90;7.27;;;;;;;;;;10557204;27;20402;-85
2023/04/29 15:18:48;;;;;;;9.30;6.97;;;;;;;;;;10545826;27;20735;-85
2023/04/29 15:23:50;;;;;;;9.40;7.18;;;;;;;;;;10544182;28;20501;-85
2023/04/29 15:28:51;;;;;;;9.70;7.20;;;;;;;;;;10548345;28;20483;-84
2023/04/29 15:33:55;;;;;;;9.63;7.10;;;;;;;;;;10558262;28;20404;-85
2023/04/29 15:38:57;;;;;;;10.50;7.20;;;;;;;;;;10548542;28;20492;-84
2023/04/29 15:43:58;;;;;;;11.07;7.13;;;;;;;;;;10564349;28;20879;-85
2023/04/29 15:49:03;;;;;;;9.93;6.87;;;;;;;;;;10555079;28;20422;-84
2023/04/29 15:54:06;;;;;;;9.95;7.10;;;;;;;;;;10539451;28;20516;-85
2023/04/29 15:59:08;;;;;;;9.20;6.90;;;;;;;;;;10546056;28;20396;-84
2023/04/29 16:04:11;;;;;;;10.13;7.35;;;;;;;;;;10541546;28;20423;-85
2023/04/29 16:09:37;;;;;;;9.00;7.13;;;;;;;;;;10546238;27;20430;-88
2023/04/29 16:14:42;;;;;;;10.00;6.35;;;;;;;;;;10539446;28;20496;-84
2023/04/29 16:19:47;;;;;;;10.40;6.63;;;;;;;;;;10550941;27;20410;-85
2023/04/29 16:24:48;;;;;;;9.50;7.05;;;;;;;;;;10555181;27;20505;-84
2023/04/29 16:29:50;;;;;;;8.43;6.00;;;;;;;;;;10549243;27;20395;-85
2023/04/29 16:34:53;;;;;;;12.20;5.80;;;;;;;;;;10534402;27;20481;-83
2023/04/29 16:40:13;;;;;;;10.77;6.90;;;;;;;;;;10534147;27;20423;-84
2023/04/29 16:45:15;;;;;;;9.55;6.32;;;;;;;;;;10537199;28;20412;-85
2023/04/29 16:50:19;;;;;;;9.07;6.47;;;;;;;;;;10548845;28;20967;-84
2023/04/29 16:55:21;;;;;;;8.27;5.80;;;;;;;;;;10555294;28;20402;-85
2023/04/29 17:00:23;;;;;;;7.38;6.10;;;;;;;;;;10545767;28;20470;-84
2023/04/29 17:05:26;;;;;;;8.02;6.40;;;;;;;;;;10551052;28;20493;-84
2023/04/29 17:10:28;;;;;;;11.48;7.50;;;;;;;;;;10545559;28;20402;-85
2023/04/29 17:15:30;;;;;;;8.80;6.07;;;;;;;;;;10546599;28;20407;-84
2023/04/29 17:20:34;;;;;;;10.70;6.47;;;;;;;;;;10542821;28;20430;-85
2023/04/29 17:25:37;;;;;;;9.57;6.57;;;;;;;;;;10544047;28;20530;-85
2023/04/29 17:30:39;;;;;;;8.27;5.93;;;;;;;;;;10548791;28;20497;-85
2023/04/29 17:35:44;;;;;;;8.10;5.60;;;;;;;;;;10540224;28;20451;-84
2023/04/29 17:40:45;;;;;;;6.97;5.70;;;;;;;;;;10551375;28;20827;-84
2023/04/29 17:45:47;;;;;;;7.35;6.25;;;;;;;;;;10549747;28;20901;-84
2023/04/29 17:50:50;;;;;;;9.40;6.90;;;;;;;;;;10542626;28;20485;-84
2023/04/29 17:55:52;;;;;;;9.93;6.70;;;;;;;;;;10543712;28;20398;-83
2023/04/29 18:00:55;;;;;;;9.00;6.30;;;;;;;;;;10547162;28;20513;-84
2023/04/29 18:05:59;;;;;;;9.77;6.47;;;;;;;;;;10533552;27;20404;-84
2023/04/29 18:11:00;;;;;;;10.07;6.73;;;;;;;;;;10538158;28;20452;-83
2023/04/29 18:16:02;;;;;;;9.60;6.60;;;;;;;;;;10534888;28;20753;-86
2023/04/29 18:21:06;;;;;;;10.73;6.90;;;;;;;;;;10529834;28;20470;-84
2023/04/29 18:26:08;;;;;;;10.10;6.60;;;;;;;;;;10545025;28;20455;-83
2023/04/29 18:31:10;;;;;;;9.43;6.20;;;;;;;;;;10547006;28;20511;-82
2023/04/29 18:36:14;;;;;;;9.25;6.40;;;;;;;;;;10553410;28;20422;-83
2023/04/29 18:41:15;;;;;;;9.18;6.07;;;;;;;;;;10544788;28;20423;-84
2023/04/29 18:46:17;;;;;;;7.90;5.78;;;;;;;;;;10548694;28;20408;-84
2023/04/29 18:51:21;;;;;;;9.82;6.00;;;;;;;;;;10550107;28;20513;-84
2023/04/29 18:56:23;;;;;;;8.43;5.57;;;;;;;;;;10547087;28;20401;-84
2023/04/29 19:01:24;;;;;;;6.93;5.97;;;;;;;;;;10543144;28;20442;-84
2023/04/29 19:06:28;;;;;;;9.07;6.38;;;;;;;;;;10548164;28;20955;-84
2023/04/29 19:11:30;;;;;;;12.63;7.78;;;;;;;;;;10546878;28;20409;-84
2023/04/29 19:16:32;;;;;;;10.67;7.70;;;;;;;;;;10544501;28;20496;-84
2023/04/29 19:21:36;;;;;;;11.50;7.40;;;;;;;;;;10547621;28;20811;-84
2023/04/29 19:26:37;;;;;;;9.82;7.22;;;;;;;;;;10546298;28;20418;-84
2023/04/29 19:31:39;;;;;;;10.05;7.00;;;;;;;;;;10541301;28;20406;-84
2023/04/29 19:36:43;;;;;;;8.35;7.32;;;;;;;;;;10538579;28;20406;-84
2023/04/29 19:41:46;;;;;;;11.30;7.73;;;;;;;;;;10543549;28;20418;-84
2023/04/29 19:46:49;;;;;;;11.52;8.77;;;;;;;;;;10546322;28;20951;-84
2023/04/29 19:52:14;;;;;;;14.97;9.90;;;;;;;;;;10551566;28;20416;-84
2023/04/29 19:57:16;;;;;;;12.70;10.30;;;;;;;;;;10544756;28;20412;-84
2023/04/29 20:02:17;;;;;;;14.82;12.02;;;;;;;;;;10548334;28;20499;-84
2023/04/29 20:07:21;;;;;;;16.67;12.10;;;;;;;;;;10541751;28;21098;-84
2023/04/29 20:12:23;;;;;;;16.58;11.68;;;;;;;;;;10555541;28;20416;-84
2023/04/29 20:17:24;;;;;;;14.20;9.20;;;;;;;;;;10547238;28;20488;-84
2023/04/29 20:22:28;;;;;;;10.10;8.85;;;;;;;;;;10544029;28;20515;-84
2023/04/29 20:27:32;;;;;;;13.98;9.30;;;;;;;;;;10548666;28;20418;-84
2023/04/29 20:32:33;;;;;;;13.13;8.35;;;;;;;;;;10547061;28;20405;-84
2023/04/29 20:37:37;;;;;;;14.35;8.70;;;;;;;;;;10548690;28;20428;-84
2023/04/29 20:42:39;;;;;;;11.60;8.85;;;;;;;;;;10548768;28;20792;-84
2023/04/29 20:47:42;;;;;;;14.75;9.50;;;;;;;;;;10551818;28;20398;-85
2023/04/29 20:52:46;;;;;;;13.40;10.02;;;;;;;;;;10551268;28;20920;-83
2023/04/29 20:57:48;;;;;;;13.00;9.80;;;;;;;;;;10553866;28;20412;-84
2023/04/29 21:02:50;;;;;;;13.68;10.27;;;;;;;;;;10550663;28;20420;-84
2023/04/29 21:07:54;;;;;;;14.23;10.50;;;;;;;;;;10554532;28;21021;-84
2023/04/29 21:12:55;;;;;;;11.32;10.13;;;;;;;;;;10553551;28;21164;-84
2023/04/29 21:17:57;;;;;;;14.65;11.02;;;;;;;;;;10551213;28;20404;-84
2023/04/29 21:23:00;;;;;;;15.30;10.93;;;;;;;;;;10548429;28;20424;-84
2023/04/29 21:28:02;;;;;;;15.63;11.27;;;;;;;;;;10544759;28;20954;-84
2023/04/29 21:33:04;;;;;;;15.35;10.93;;;;;;;;;;10545483;28;20431;-83
2023/04/29 21:38:07;;;;;;;16.07;11.67;;;;;;;;;;10544168;28;20494;-84
2023/04/29 21:43:10;;;;;;;15.73;12.40;;;;;;;;;;10543171;28;20615;-83
2023/04/29 21:48:15;;;;;;;17.42;11.85;;;;;;;;;;10542473;28;20414;-84
2023/04/29 21:53:18;;;;;;;15.93;11.77;;;;;;;;;;10545992;28;20399;-83
2023/04/29 21:58:20;;;;;;;17.80;13.35;;;;;;;;;;10550269;28;20407;-83
2023/04/29 22:03:21;;;;;;;15.50;12.50;;;;;;;;;;10547563;28;20418;-83
2023/04/29 22:08:25;;;;;;;16.40;12.07;;;;;;;;;;10541529;28;20414;-83
2023/04/29 22:13:27;;;;;;;17.47;11.90;;;;;;;;;;10543873;28;20396;-84
2023/04/29 22:18:29;;;;;;;16.63;13.02;;;;;;;;;;10544346;28;20416;-83
2023/04/29 22:23:32;;;;;;;18.52;12.88;;;;;;;;;;10542478;28;20419;-84
2023/04/29 22:28:34;;;;;;;18.17;12.48;;;;;;;;;;10529126;28;20411;-83
2023/04/29 22:33:36;;;;;;;16.93;12.83;;;;;;;;;;10543198;28;20996;-83
2023/04/29 22:38:39;;;;;;;17.52;13.13;;;;;;;;;;10547482;28;20754;-83
2023/04/29 22:43:41;;;;;;;17.57;13.23;;;;;;;;;;10545836;28;20649;-84
2023/04/29 22:48:43;;;;;;;18.00;13.57;;;;;;;;;;10545324;28;20448;-84
2023/04/29 22:53:46;;;;;;;21.27;14.32;;;;;;;;;;10546520;28;20422;-84
2023/04/29 22:58:48;;;;;;;17.08;13.68;;;;;;;;;;10542779;28;20411;-84
2023/04/29 23:03:50;;;;;;;18.52;13.77;;;;;;;;;;10548488;28;20661;-84
2023/04/29 23:08:54;;;;;;;18.83;14.43;;;;;;;;;;10547542;28;20852;-83
2023/04/29 23:13:56;;;;;;;20.87;15.10;;;;;;;;;;10546179;28;20491;-84
2023/04/29 23:18:57;;;;;;;19.48;15.10;;;;;;;;;;10548156;28;20492;-84
2023/04/29 23:24:01;;;;;;;19.90;14.45;;;;;;;;;;10544126;28;20428;-84
2023/04/29 23:29:02;;;;;;;20.07;14.60;;;;;;;;;;10551317;28;20485;-86
2023/04/29 23:34:04;;;;;;;21.57;15.43;;;;;;;;;;10545350;28;20884;-83
2023/04/29 23:39:07;;;;;;;22.60;15.45;;;;;;;;;;10543601;28;20396;-84
2023/04/29 23:44:09;;;;;;;19.97;15.33;;;;;;;;;;10545289;28;20419;-84
2023/04/29 23:49:11;;;;;;;21.07;15.13;;;;;;;;;;10544635;28;20909;-84
2023/04/29 23:54:15;;;;;;;19.95;15.15;;;;;;;;;;10546369;28;20425;-84
2023/04/29 23:59:16;;;;;;;20.13;15.40;;;;;;;;;;10547732;28;20404;-83
